Toronado — WDD6167 — position and weather

sailwx.info

Track history (hours):
 
Tides and Currents Weather Stations Pressure Air Temp Water Temp Dewpoint Dewpoint Depression Visibility Wind Speed Wind Dir Waves Ship Positions

Toronado

Owner: Toronado Sportfishing, Long Beach, CA. More information available from US FCC via Universal Licensing System and Coast Guard Vessel Documentation Center.

Last reported at 2017-Nov-19 11:27 UTC. Time now 2017-Nov-19 17:39 UTC.
Position N 32°58' W 118°13'.

Length 22 m.

Type: Fishing. MMSI: 367169120.

Date/timePositionNaut miles runAvg speedWind from/ knotsBaromVisibWave heightAir tempDewpointWater temp
2017-Nov-19 11:27N 32°58' W 118°13'4 9.5
2017-Nov-19 10:59N 33°02' W 118°13'5 9.6
2017-Nov-19 10:29N 33°07' W 118°12'5 9.6
2017-Nov-19 09:59N 33°12' W 118°12'5 9.7
2017-Nov-19 09:30N 33°16' W 118°11'  
2017-Nov-16 14:55N 33°45' W 118°12'0 0.6
2017-Nov-16 14:23N 33°46' W 118°12'0 0.0
2017-Nov-16 13:46N 33°46' W 118°12'0 0.0
2017-Nov-16 13:27N 33°46' W 118°12'7 3.3
2017-Nov-16 11:22N 33°39' W 118°12'5 0.2
2017-Nov-15 06:06N 33°44' W 118°08'0 0.2
2017-Nov-15 05:53N 33°44' W 118°09'  
2017-Nov-12 03:20N 33°34' W 118°12'  
Track history (hours):
 
Tides and Currents Weather Stations Pressure Air Temp Water Temp Dewpoint Dewpoint Depression Visibility Wind Speed Wind Dir Waves Ship Positions

Toronado

Owner: Toronado Sportfishing, Long Beach, CA. More information available from US FCC via Universal Licensing System and Coast Guard Vessel Documentation Center.

Last reported at 2017-Nov-19 11:27 UTC. Time now 2017-Nov-19 17:39 UTC.
Position N 32°58' W 118°13'.

Length 22 m.

Type: Fishing. MMSI: 367169120.

Date/timePositionNaut miles runAvg speedWind from/ knotsBaromVisibWave heightAir tempDewpointWater temp
2017-Nov-19 11:27N 32°58' W 118°13'4 9.5
2017-Nov-19 10:59N 33°02' W 118°13'5 9.6
2017-Nov-19 10:29N 33°07' W 118°12'5 9.6
2017-Nov-19 09:59N 33°12' W 118°12'5 9.7
2017-Nov-19 09:30N 33°16' W 118°11'  
2017-Nov-16 14:55N 33°45' W 118°12'0 0.6
2017-Nov-16 14:23N 33°46' W 118°12'0 0.0
2017-Nov-16 13:46N 33°46' W 118°12'0 0.0
2017-Nov-16 13:27N 33°46' W 118°12'7 3.3
2017-Nov-16 11:22N 33°39' W 118°12'5 0.2
2017-Nov-15 06:06N 33°44' W 118°08'0 0.2
2017-Nov-15 05:53N 33°44' W 118°09'  
2017-Nov-12 03:20N 33°34' W 118°12'  

Dump ship's entire track history